Columbus, Ohio
Traffic Map
Current Weather Conditions
Columbus, Ohio
Few Clouds
Few Clouds
19°
Feels Like: 19°
Wind Chill: 19° Ceiling: Unl
Heat Index: 19° Visibility: 10mi
Dew Point: 14° Wind: 0mph
Humidity: 73% Direction: ° ()
Pressure: 30.21in Gusts: 0mph
Raw Report DataKCMH 281351Z 00000KT 10SM FEW250 19/14 A3021 RMK AO2 SLP227 T01940144
Traffic Incident Summary
Active as of:
Severity:
Category:
InformationThere was an issue retrieving the traffic information for this location. Please try a different location or try again shortly.
Advertisements
Track Severe Weather on mobile